createdAt,value
2018-12-10T00:00:38.036Z,93.98
2018-12-10T00:03:12.004Z,93.75
2018-12-10T00:05:40.940Z,94.30
2018-12-10T00:08:09.614Z,93.79
2018-12-10T00:10:41.733Z,94.00
2018-12-10T00:13:09.145Z,94.13
2018-12-10T00:15:37.964Z,93.93
2018-12-10T00:18:06.582Z,93.64
2018-12-10T00:20:35.301Z,93.50
2018-12-10T00:23:04.098Z,93.14
2018-12-10T00:25:33.230Z,93.79
2018-12-10T00:28:02.354Z,93.94
2018-12-10T00:30:31.563Z,93.52
2018-12-10T00:33:00.207Z,93.50
2018-12-10T00:35:28.968Z,93.29
2018-12-10T00:37:57.598Z,93.14
2018-12-10T00:40:26.233Z,93.63
2018-12-10T00:42:55.178Z,93.54
2018-12-10T00:45:24.219Z,93.43
2018-12-10T00:47:52.988Z,93.39
2018-12-10T00:50:21.689Z,93.45
2018-12-10T00:52:50.477Z,93.55
2018-12-10T00:55:19.253Z,93.87
2018-12-10T00:57:48.253Z,93.79
2018-12-10T01:00:17.068Z,93.44
2018-12-10T01:02:46.118Z,93.48
2018-12-10T01:05:15.230Z,93.70
2018-12-10T01:07:44.157Z,92.96
2018-12-10T01:10:12.891Z,93.11
2018-12-10T01:12:41.678Z,93.33
2018-12-10T01:15:10.631Z,93.28
2018-12-10T01:17:39.637Z,93.11
2018-12-10T01:20:08.574Z,93.21
2018-12-10T01:22:37.615Z,92.78
2018-12-10T01:25:06.615Z,92.90
2018-12-10T01:27:35.371Z,92.73
2018-12-10T01:30:04.200Z,92.90
2018-12-10T01:32:33.009Z,92.69
2018-12-10T01:35:01.973Z,92.65
2018-12-10T01:37:31.028Z,92.80
2018-12-10T01:39:59.995Z,92.58
2018-12-10T01:42:28.950Z,92.49
2018-12-10T01:44:57.960Z,92.93
2018-12-10T01:47:26.614Z,92.85
2018-12-10T01:49:55.436Z,93.05
2018-12-10T01:52:24.072Z,92.83
2018-12-10T01:54:52.760Z,92.81
2018-12-10T01:57:21.400Z,93.55
2018-12-10T01:59:50.145Z,93.15
2018-12-10T02:02:18.800Z,93.45
2018-12-10T02:04:47.413Z,92.87
2018-12-10T02:07:16.116Z,92.93
2018-12-10T02:09:44.821Z,92.90
2018-12-10T02:12:13.412Z,93.04
2018-12-10T02:14:42.224Z,93.07
2018-12-10T02:17:10.893Z,92.60
2018-12-10T02:19:41.403Z,92.83
2018-12-10T02:22:10.294Z,92.70
2018-12-10T02:24:39.074Z,92.52
2018-12-10T02:27:07.863Z,93.27
2018-12-10T02:29:36.574Z,93.18
2018-12-10T02:32:05.776Z,92.94
2018-12-10T02:34:34.382Z,93.30
2018-12-10T02:37:03.159Z,92.63
2018-12-10T02:39:31.896Z,93.37
2018-12-10T02:42:00.560Z,93.16
2018-12-10T02:44:29.354Z,93.30
2018-12-10T02:46:57.960Z,93.38
2018-12-10T02:49:26.691Z,92.95
2018-12-10T02:51:55.330Z,92.66
2018-12-10T02:54:24.073Z,92.47
2018-12-10T02:56:52.860Z,92.68
2018-12-10T02:59:21.659Z,92.71
2018-12-10T03:01:50.388Z,92.37
2018-12-10T03:04:19.120Z,93.02
2018-12-10T03:06:47.889Z,92.49
2018-12-10T03:09:16.921Z,92.17
2018-12-10T03:11:45.712Z,92.43
2018-12-10T03:14:14.798Z,92.36
2018-12-10T03:16:44.542Z,91.98
2018-12-10T03:19:13.632Z,91.85
2018-12-10T03:21:42.812Z,92.57
2018-12-10T03:24:11.672Z,92.98
2018-12-10T03:26:40.610Z,92.40
2018-12-10T03:29:09.240Z,92.62
2018-12-10T03:31:38.009Z,92.31
2018-12-10T03:34:06.689Z,92.84
2018-12-10T03:36:36.514Z,92.50
2018-12-10T03:39:06.634Z,92.84
2018-12-10T03:41:35.522Z,92.19
2018-12-10T03:44:04.624Z,92.59
2018-12-10T03:46:33.625Z,92.19
2018-12-10T03:49:02.669Z,92.83
2018-12-10T03:51:31.847Z,92.65
2018-12-10T03:54:00.778Z,92.32
2018-12-10T03:56:29.456Z,92.87
2018-12-10T03:58:58.376Z,93.38
2018-12-10T04:01:27.315Z,92.80
2018-12-10T04:03:56.669Z,92.73
2018-12-10T04:06:25.386Z,92.31
2018-12-10T04:08:54.270Z,92.54
2018-12-10T04:11:23.025Z,92.91
2018-12-10T04:13:52.102Z,93.29
2018-12-10T04:16:20.927Z,92.82
2018-12-10T04:18:49.752Z,93.08
2018-12-10T04:21:18.780Z,92.61
2018-12-10T04:23:47.547Z,92.82
2018-12-10T04:26:16.495Z,92.98
2018-12-10T04:28:45.233Z,92.61
2018-12-10T04:31:13.956Z,92.88
2018-12-10T04:33:42.673Z,92.90
2018-12-10T04:36:11.740Z,93.10
2018-12-10T04:38:40.619Z,92.88
2018-12-10T04:41:09.179Z,92.70
2018-12-10T04:43:38.194Z,92.54
2018-12-10T04:46:06.971Z,92.91
2018-12-10T04:48:35.861Z,92.81
2018-12-10T04:51:04.746Z,92.99
2018-12-10T04:53:33.546Z,92.30
2018-12-10T04:56:02.277Z,92.83
2018-12-10T04:58:31.224Z,92.83
2018-12-10T05:00:59.965Z,92.91
2018-12-10T05:03:28.925Z,92.99
2018-12-10T05:05:58.020Z,93.04
2018-12-10T05:08:26.706Z,92.68
2018-12-10T05:10:55.480Z,92.74
2018-12-10T05:13:24.096Z,92.91
2018-12-10T05:15:52.831Z,92.70
2018-12-10T05:18:21.826Z,93.21
2018-12-10T05:20:50.699Z,92.76
2018-12-10T05:23:19.536Z,92.70
2018-12-10T05:25:48.208Z,93.10
2018-12-10T05:28:16.973Z,92.66
2018-12-10T05:30:45.762Z,92.51
2018-12-10T05:33:14.636Z,92.72
2018-12-10T05:35:43.531Z,92.34
2018-12-10T05:38:12.619Z,93.03
2018-12-10T05:40:42.120Z,92.77
2018-12-10T05:43:10.724Z,92.81
2018-12-10T05:45:39.684Z,92.84
2018-12-10T05:48:08.393Z,93.25
2018-12-10T05:50:37.342Z,92.30
2018-12-10T05:53:05.567Z,92.37
2018-12-10T05:55:34.480Z,92.68
2018-12-10T05:58:03.213Z,92.82
2018-12-10T06:00:32.022Z,92.45
2018-12-10T06:03:01.006Z,92.99
2018-12-10T06:05:29.673Z,92.74
2018-12-10T06:07:58.282Z,92.72
2018-12-10T06:10:27.071Z,92.65
2018-12-10T06:12:55.829Z,92.74
2018-12-10T06:15:24.551Z,92.87
2018-12-10T06:17:53.406Z,92.44
2018-12-10T06:20:22.359Z,92.32
2018-12-10T06:22:51.130Z,92.32
2018-12-10T06:25:19.777Z,92.50
2018-12-10T06:27:48.822Z,92.44
2018-12-10T06:30:17.607Z,92.24
2018-12-10T06:32:46.687Z,92.57
2018-12-10T06:35:15.795Z,92.65
2018-12-10T06:37:44.735Z,92.71
2018-12-10T06:40:13.834Z,92.78
2018-12-10T06:42:43.283Z,92.51
2018-12-10T06:45:12.051Z,92.30
2018-12-10T06:47:40.758Z,92.49
2018-12-10T06:50:09.979Z,92.64
2018-12-10T06:52:39.077Z,92.34
2018-12-10T06:55:08.178Z,92.33
2018-12-10T06:57:37.215Z,92.64
2018-12-10T07:00:07.668Z,92.36
2018-12-10T07:02:36.674Z,92.86
2018-12-10T07:05:06.055Z,92.30
2018-12-10T07:07:35.090Z,92.49
2018-12-10T07:10:04.362Z,92.36
2018-12-10T07:12:33.755Z,92.75
2018-12-10T07:15:02.793Z,92.66
2018-12-10T07:17:31.851Z,92.30
2018-12-10T07:20:00.509Z,92.53
2018-12-10T07:22:29.427Z,92.01
2018-12-10T07:24:58.188Z,92.24
2018-12-10T07:27:26.873Z,91.73
2018-12-10T07:29:55.835Z,92.29
2018-12-10T07:32:24.838Z,91.58
2018-12-10T07:34:53.915Z,91.80
2018-12-10T07:37:22.572Z,91.86
2018-12-10T07:39:51.618Z,92.18
2018-12-10T07:42:20.588Z,91.94
2018-12-10T07:44:49.297Z,91.93
2018-12-10T07:47:18.443Z,91.92
2018-12-10T07:49:47.235Z,92.41
2018-12-10T07:52:16.100Z,92.44
2018-12-10T07:54:45.163Z,91.97
2018-12-10T07:57:13.991Z,92.34
2018-12-10T07:59:42.780Z,92.49
2018-12-10T08:02:11.705Z,91.87
2018-12-10T08:04:40.778Z,92.28
2018-12-10T08:07:09.697Z,91.72
2018-12-10T08:09:38.376Z,91.65
2018-12-10T08:12:07.234Z,92.09
2018-12-10T08:14:36.496Z,92.28
2018-12-10T08:17:05.473Z,91.99
2018-12-10T08:19:34.295Z,92.03
2018-12-10T08:22:03.087Z,92.20
2018-12-10T08:24:32.269Z,91.73
2018-12-10T08:27:01.211Z,91.71
2018-12-10T08:29:30.174Z,91.80
2018-12-10T08:31:59.269Z,91.46
2018-12-10T08:34:28.281Z,91.61
2018-12-10T08:36:57.062Z,91.54
2018-12-10T08:39:26.006Z,91.11
2018-12-10T08:41:54.953Z,91.55
2018-12-10T08:44:23.901Z,91.37
2018-12-10T08:46:52.980Z,92.19
2018-12-10T08:49:22.011Z,91.68
2018-12-10T08:51:50.908Z,91.86
2018-12-10T08:54:19.750Z,91.75
2018-12-10T08:56:48.553Z,91.83
2018-12-10T08:59:17.648Z,91.45
2018-12-10T09:01:47.087Z,91.52
2018-12-10T09:04:16.235Z,91.77
2018-12-10T09:06:45.075Z,91.42
2018-12-10T09:09:14.080Z,91.44
2018-12-10T09:11:42.995Z,91.69
2018-12-10T09:14:11.890Z,91.21
2018-12-10T09:16:40.753Z,91.50
2018-12-10T09:19:09.774Z,91.16
2018-12-10T09:21:38.435Z,91.40
2018-12-10T09:24:07.602Z,91.29
2018-12-10T09:26:36.523Z,90.81
2018-12-10T09:29:05.205Z,91.28
2018-12-10T09:31:34.012Z,91.05
2018-12-10T09:34:02.910Z,91.04
2018-12-10T09:36:31.805Z,91.02
2018-12-10T09:39:00.981Z,91.07
2018-12-10T09:41:29.879Z,90.66
2018-12-10T09:43:59.034Z,91.06
2018-12-10T09:46:27.858Z,90.50
2018-12-10T09:48:56.816Z,91.02
2018-12-10T09:51:25.755Z,90.70
2018-12-10T09:53:54.436Z,90.48
2018-12-10T09:56:23.330Z,90.49
2018-12-10T09:58:52.286Z,90.59
2018-12-10T10:01:21.324Z,90.35
2018-12-10T10:03:50.014Z,90.95
2018-12-10T10:06:18.835Z,90.76
2018-12-10T10:08:49.644Z,90.55
2018-12-10T10:11:19.001Z,90.74
2018-12-10T10:13:48.059Z,90.22
2018-12-10T10:16:17.200Z,90.39
2018-12-10T10:18:45.973Z,90.80
2018-12-10T10:21:14.982Z,90.16
2018-12-10T10:23:43.604Z,90.40
2018-12-10T10:26:12.753Z,90.36
2018-12-10T10:28:41.470Z,90.27
2018-12-10T10:31:10.364Z,90.61
2018-12-10T10:33:39.608Z,90.59
2018-12-10T10:36:08.560Z,90.63
2018-12-10T10:38:37.256Z,90.64
2018-12-10T10:41:06.012Z,90.66
2018-12-10T10:43:34.684Z,91.09
2018-12-10T10:46:03.489Z,90.89
2018-12-10T10:48:32.070Z,90.89
2018-12-10T10:51:00.667Z,90.97
2018-12-10T10:53:29.529Z,90.87
2018-12-10T10:55:58.135Z,90.41
2018-12-10T10:58:26.767Z,90.89
2018-12-10T11:01:00.561Z,90.52
2018-12-10T11:03:34.680Z,90.67
2018-12-10T11:06:03.533Z,90.36
2018-12-10T11:08:32.114Z,90.16
2018-12-10T11:11:00.797Z,90.41
2018-12-10T11:13:29.536Z,90.81
2018-12-10T11:15:58.633Z,90.60
2018-12-10T11:18:27.326Z,90.23
2018-12-10T11:20:56.460Z,90.25
2018-12-10T11:23:26.304Z,90.56
2018-12-10T11:25:55.368Z,90.48
2018-12-10T11:28:24.258Z,90.74
2018-12-10T11:30:53.043Z,90.95
2018-12-10T11:33:22.400Z,90.59
2018-12-10T11:35:51.135Z,90.30
2018-12-10T11:38:20.307Z,90.25
2018-12-10T11:40:49.533Z,90.10
2018-12-10T11:43:18.280Z,90.25
2018-12-10T11:45:47.385Z,90.75
2018-12-10T11:48:16.076Z,90.54
2018-12-10T11:50:44.844Z,90.38
2018-12-10T11:53:13.758Z,90.53
2018-12-10T11:55:42.656Z,90.68
2018-12-10T11:58:11.640Z,90.64
2018-12-10T12:00:40.930Z,90.53
2018-12-10T12:03:09.816Z,90.53
2018-12-10T12:05:38.610Z,90.10
2018-12-10T12:08:07.775Z,90.08
2018-12-10T12:10:36.743Z,90.18
2018-12-10T12:13:05.777Z,90.30
2018-12-10T12:15:34.929Z,89.89
2018-12-10T12:18:04.017Z,90.29
2018-12-10T12:20:32.868Z,90.17
2018-12-10T12:23:01.724Z,90.19
2018-12-10T12:25:30.614Z,90.49
2018-12-10T12:27:59.479Z,89.90
2018-12-10T12:30:28.553Z,90.22
2018-12-10T12:32:57.565Z,90.16
2018-12-10T12:35:26.431Z,90.45
2018-12-10T12:37:55.079Z,90.45
2018-12-10T12:40:23.915Z,90.15
2018-12-10T12:42:52.802Z,90.25
2018-12-10T12:45:21.660Z,90.18
2018-12-10T12:47:50.494Z,90.47
2018-12-10T12:50:19.758Z,90.32
2018-12-10T12:52:48.725Z,90.19
2018-12-10T12:55:17.783Z,90.26
2018-12-10T12:57:46.508Z,90.37
2018-12-10T13:00:15.724Z,89.97
2018-12-10T13:02:44.429Z,90.73
2018-12-10T13:05:13.480Z,90.65
2018-12-10T13:07:42.512Z,90.71
2018-12-10T13:10:12.011Z,90.89
2018-12-10T13:12:40.846Z,90.77
2018-12-10T13:15:09.807Z,90.51
2018-12-10T13:17:38.462Z,90.79
2018-12-10T13:20:14.024Z,90.64
2018-12-10T13:22:47.283Z,90.76
2018-12-10T13:25:13.829Z,90.55
2018-12-10T13:27:42.668Z,90.36
2018-12-10T13:30:11.567Z,90.57
2018-12-10T13:32:40.247Z,90.35
2018-12-10T13:35:09.636Z,90.83
2018-12-10T13:37:38.706Z,90.66
2018-12-10T13:40:07.878Z,90.56
2018-12-10T13:42:37.185Z,90.17
2018-12-10T13:45:06.422Z,90.00
2018-12-10T13:47:35.378Z,89.94
2018-12-10T13:50:04.639Z,89.91
2018-12-10T13:52:33.495Z,89.86
2018-12-10T13:55:02.862Z,89.95
2018-12-10T13:57:31.818Z,89.80
2018-12-10T14:00:01.250Z,89.83
2018-12-10T14:02:30.552Z,89.27
2018-12-10T14:05:05.105Z,89.46
2018-12-10T14:07:34.275Z,89.83
2018-12-10T14:10:02.957Z,89.73
2018-12-10T14:12:31.999Z,89.56
2018-12-10T14:15:00.789Z,89.54
2018-12-10T14:17:29.889Z,88.96
2018-12-10T14:19:58.754Z,89.46
2018-12-10T14:22:33.950Z,90.00
2018-12-10T14:25:03.478Z,89.97
2018-12-10T14:27:32.354Z,90.08
2018-12-10T14:30:01.364Z,89.36
2018-12-10T14:32:30.349Z,89.75
2018-12-10T14:34:59.553Z,89.36
2018-12-10T14:37:28.299Z,89.75
2018-12-10T14:39:56.987Z,90.12
2018-12-10T14:42:26.097Z,89.94
2018-12-10T14:44:55.071Z,90.39
2018-12-10T14:47:24.053Z,90.48
2018-12-10T14:52:35.844Z,90.36
2018-12-10T14:55:04.886Z,90.51
2018-12-10T14:57:33.979Z,90.09
2018-12-10T15:00:03.016Z,90.00
2018-12-10T15:02:32.117Z,90.45
2018-12-10T15:05:00.939Z,90.25
2018-12-10T15:07:30.170Z,90.28
2018-12-10T15:09:59.053Z,89.69
2018-12-10T15:12:28.071Z,89.79
2018-12-10T15:14:57.088Z,90.03
2018-12-10T15:17:25.995Z,89.65
2018-12-10T15:19:54.731Z,89.97
2018-12-10T15:22:23.621Z,89.91
2018-12-10T15:24:52.457Z,89.84
2018-12-10T15:27:21.308Z,89.57
2018-12-10T15:29:50.019Z,90.55
2018-12-10T15:32:18.956Z,90.73
2018-12-10T15:34:47.946Z,90.76
2018-12-10T15:37:16.864Z,90.40
2018-12-10T15:39:45.619Z,90.17
2018-12-10T15:42:14.348Z,90.75
2018-12-10T15:44:43.235Z,90.68
2018-12-10T15:47:11.995Z,90.05
2018-12-10T15:49:40.879Z,90.41
2018-12-10T15:52:10.120Z,90.38
2018-12-10T15:54:38.745Z,90.43
2018-12-10T15:57:07.501Z,90.20
2018-12-10T15:59:36.315Z,91.00
2018-12-10T16:02:05.072Z,90.77
2018-12-10T16:04:35.659Z,90.39
2018-12-10T16:07:04.486Z,90.53
2018-12-10T16:09:33.411Z,90.60
2018-12-10T16:12:02.298Z,90.88
2018-12-10T16:14:31.355Z,90.49
2018-12-10T16:17:00.178Z,90.76
2018-12-10T16:19:29.002Z,90.05
2018-12-10T16:21:57.775Z,90.56
2018-12-10T16:24:26.593Z,90.27
2018-12-10T16:26:55.397Z,90.60
2018-12-10T16:29:24.447Z,89.85
2018-12-10T16:31:53.357Z,90.48
2018-12-10T16:34:22.386Z,90.06
2018-12-10T16:36:51.482Z,90.02
2018-12-10T16:39:20.219Z,89.99
2018-12-10T16:41:49.101Z,89.82
2018-12-10T16:44:18.123Z,89.96
2018-12-10T16:46:46.894Z,89.77
2018-12-10T16:49:15.731Z,90.08
2018-12-10T16:51:44.865Z,89.50
2018-12-10T16:54:14.201Z,89.72
2018-12-10T16:56:43.259Z,90.23
2018-12-10T16:59:12.246Z,89.26
2018-12-10T17:01:41.247Z,89.47
2018-12-10T17:04:10.361Z,89.72
2018-12-10T17:06:39.482Z,89.46
2018-12-10T17:09:11.730Z,89.85
2018-12-10T17:11:40.942Z,89.56
2018-12-10T17:14:09.913Z,90.02
2018-12-10T17:16:38.859Z,90.05
2018-12-10T17:19:38.443Z,90.53
2018-12-10T17:22:07.390Z,90.45
2018-12-10T17:24:36.169Z,90.46
2018-12-10T17:27:05.060Z,90.21
2018-12-10T17:29:33.865Z,90.37
2018-12-10T17:32:03.922Z,90.49
2018-12-10T17:34:32.611Z,90.17
2018-12-10T17:39:02.014Z,90.57
2018-12-10T17:41:30.848Z,90.78
2018-12-10T17:44:00.355Z,90.80
2018-12-10T17:46:29.698Z,90.61
2018-12-10T17:48:58.584Z,90.54
2018-12-10T17:51:27.306Z,91.02
2018-12-10T17:53:57.002Z,90.74
2018-12-10T17:56:26.221Z,90.41
2018-12-10T17:58:55.008Z,90.46
2018-12-10T18:01:23.864Z,90.40
2018-12-10T18:03:52.986Z,90.22
2018-12-10T18:06:21.681Z,90.41
2018-12-10T18:08:51.140Z,90.16
2018-12-10T18:11:20.084Z,89.46
2018-12-10T18:13:49.014Z,89.78
2018-12-10T18:16:17.989Z,89.71
2018-12-10T18:18:47.166Z,89.73
2018-12-10T18:21:16.060Z,89.81
2018-12-10T18:23:45.132Z,89.50
2018-12-10T18:26:13.946Z,89.58
2018-12-10T18:28:42.734Z,89.69
2018-12-10T18:31:11.945Z,89.68
2018-12-10T18:33:41.334Z,89.52
2018-12-10T18:36:10.272Z,90.13
2018-12-10T18:38:39.054Z,90.46
2018-12-10T18:41:08.032Z,90.12
2018-12-10T18:43:36.892Z,90.16
2018-12-10T18:46:05.981Z,89.88
2018-12-10T18:48:34.992Z,90.47
2018-12-10T18:51:04.057Z,90.54
2018-12-10T18:53:33.286Z,90.32
2018-12-10T18:56:02.253Z,90.33
2018-12-10T18:58:31.075Z,90.23
2018-12-10T19:01:00.055Z,90.19
2018-12-10T19:03:28.881Z,90.08
2018-12-10T19:05:57.671Z,90.02
2018-12-10T19:08:27.237Z,89.75
2018-12-10T19:10:56.311Z,89.77
2018-12-10T19:13:25.432Z,89.71
2018-12-10T19:15:54.403Z,90.06
2018-12-10T19:18:23.705Z,89.35
2018-12-10T19:20:52.407Z,89.44
2018-12-10T19:23:21.218Z,89.77
2018-12-10T19:25:50.619Z,90.53
2018-12-10T19:28:19.715Z,89.77
2018-12-10T19:30:49.071Z,90.06
2018-12-10T19:33:18.081Z,89.74
2018-12-10T19:35:46.869Z,89.32
2018-12-10T19:38:15.771Z,89.82
2018-12-10T19:40:44.993Z,89.39
2018-12-10T19:43:14.066Z,89.35
2018-12-10T19:45:42.970Z,89.36
2018-12-10T19:48:11.736Z,89.51
2018-12-10T19:50:40.460Z,89.06
2018-12-10T19:53:09.232Z,89.02
2018-12-10T19:55:38.349Z,88.91
2018-12-10T19:58:07.656Z,88.76
2018-12-10T20:00:37.179Z,88.55
2018-12-10T20:03:06.373Z,88.52
2018-12-10T20:05:40.496Z,88.77
2018-12-10T20:08:09.487Z,89.38
2018-12-10T20:10:38.258Z,89.24
2018-12-10T20:13:07.066Z,89.34
2018-12-10T20:15:36.311Z,88.99
2018-12-10T20:18:05.358Z,89.08
2018-12-10T20:20:34.310Z,89.67
2018-12-10T20:23:03.478Z,89.72
2018-12-10T20:25:32.387Z,89.07
2018-12-10T20:28:01.116Z,89.21
2018-12-10T20:30:29.949Z,89.10
2018-12-10T20:32:58.790Z,89.04
2018-12-10T20:35:27.983Z,88.50
2018-12-10T20:37:57.335Z,88.45
2018-12-10T20:40:26.233Z,88.96
2018-12-10T20:42:55.163Z,88.45
2018-12-10T20:45:24.068Z,88.64
2018-12-10T20:47:53.135Z,88.86
2018-12-10T20:50:22.079Z,88.84
2018-12-10T20:52:51.027Z,88.93
2018-12-10T20:55:20.141Z,88.38
2018-12-10T20:57:48.844Z,88.21
2018-12-10T21:00:17.688Z,87.87
2018-12-10T21:02:46.345Z,88.44
2018-12-10T21:05:15.224Z,88.09
2018-12-10T21:07:44.233Z,88.34
2018-12-10T21:10:12.948Z,87.91
2018-12-10T21:12:42.047Z,88.20
2018-12-10T21:15:11.493Z,88.28
2018-12-10T21:17:40.408Z,88.87
2018-12-10T21:20:10.044Z,88.66
2018-12-10T21:22:39.091Z,88.88
2018-12-10T21:25:08.030Z,88.64
2018-12-10T21:27:36.801Z,88.59
2018-12-10T21:30:06.662Z,88.65
2018-12-10T21:32:35.547Z,88.38
2018-12-10T21:35:04.704Z,88.64
2018-12-10T21:37:33.724Z,88.17
2018-12-10T21:40:02.587Z,87.91
2018-12-10T21:42:31.508Z,88.30
2018-12-10T21:45:00.606Z,88.26
2018-12-10T21:47:29.618Z,88.32
2018-12-10T21:49:58.363Z,88.57
2018-12-10T21:52:27.694Z,88.70
2018-12-10T21:54:57.025Z,88.68
2018-12-10T21:57:25.938Z,88.74
2018-12-10T21:59:54.802Z,88.90
2018-12-10T22:02:23.540Z,88.74
2018-12-10T22:04:52.473Z,88.41
2018-12-10T22:07:21.094Z,88.35
2018-12-10T22:09:49.926Z,88.16
2018-12-10T22:12:18.783Z,88.13
2018-12-10T22:14:47.840Z,88.19
2018-12-10T22:17:16.695Z,88.04
2018-12-10T22:19:45.308Z,87.63
2018-12-10T22:22:14.011Z,88.01
2018-12-10T22:24:42.633Z,88.02
2018-12-10T22:27:11.311Z,88.55
2018-12-10T22:29:39.934Z,88.05
2018-12-10T22:32:08.686Z,88.21
2018-12-10T22:34:37.444Z,88.35
2018-12-10T22:37:06.311Z,87.88
2018-12-10T22:39:35.408Z,87.94
2018-12-10T22:42:04.184Z,87.70
2018-12-10T22:44:33.219Z,87.92
2018-12-10T22:47:01.961Z,88.22
2018-12-10T22:49:30.887Z,87.77
2018-12-10T22:51:59.876Z,87.93
2018-12-10T22:54:28.862Z,88.33
2018-12-10T22:56:57.485Z,87.96
2018-12-10T22:59:26.427Z,87.48
2018-12-10T23:01:55.252Z,88.03
2018-12-10T23:04:23.978Z,88.19
2018-12-10T23:06:53.351Z,87.86
2018-12-10T23:09:53.135Z,88.06
2018-12-10T23:12:21.923Z,87.58
2018-12-10T23:14:50.754Z,87.39
2018-12-10T23:17:19.516Z,88.18
2018-12-10T23:19:48.609Z,87.79
2018-12-10T23:22:17.469Z,87.77
2018-12-10T23:24:46.385Z,87.86
2018-12-10T23:27:15.357Z,87.77
2018-12-10T23:29:44.054Z,87.80
2018-12-10T23:32:12.974Z,87.92
2018-12-10T23:34:41.847Z,87.86
2018-12-10T23:37:10.866Z,87.98
2018-12-10T23:39:39.791Z,87.67
2018-12-10T23:42:08.846Z,87.66
2018-12-10T23:44:42.920Z,87.71
2018-12-10T23:47:11.631Z,87.73
2018-12-10T23:49:40.270Z,87.75
2018-12-10T23:52:08.989Z,87.25
2018-12-10T23:54:37.592Z,87.60
2018-12-10T23:57:06.293Z,87.78
2018-12-10T23:59:35.142Z,87.73
